EICD weather

CLOSED Castlebridge Airport
Wexford, County Wexford, Ireland

Public forecast

Using degrees Celsius for public forecast. Weather courtesy of forecast.io.

METAR (pilot weather report)

Closest report is Waterford Airport, 25.8 nm (47.8 km) WSW. Retrieved 2019/06/19 08:30 UTC (0 seconds ago):

EIWF 190830Z 35004KT 300V040 CAVOK ///// Q1010

TAF (pilot weather forecast)

Closest forecast is Dublin Airport, 63.5 nm (117.6 km) N. Retrieved 2019/06/19 06:09 UTC (2 hours ago):

TAF EIDW 190500Z 1906/2006 26010KT 9999 FEW020 SCT040 TEMPO 1912/1918 -SHRA SCT020CB